createdAt,value
2023-08-15T00:00:00.517Z,9.745498
2023-08-15T00:00:59.536Z,9.745711
2023-08-15T00:01:59.478Z,9.745753
2023-08-15T00:02:59.543Z,9.745457
2023-08-15T00:03:59.523Z,9.745542
2023-08-15T00:04:59.456Z,9.745441
2023-08-15T00:05:59.453Z,9.745380
2023-08-15T00:06:59.438Z,9.745626
2023-08-15T00:07:59.434Z,9.745642
2023-08-15T00:08:59.452Z,9.745849
2023-08-15T00:09:59.431Z,9.745511
2023-08-15T00:10:59.411Z,9.745462
2023-08-15T00:11:59.405Z,9.745612
2023-08-15T00:12:59.423Z,9.745713
2023-08-15T00:13:59.435Z,9.745033
2023-08-15T00:14:59.384Z,9.745347
2023-08-15T00:15:59.371Z,9.745835
2023-08-15T00:16:59.426Z,9.746103
2023-08-15T00:17:59.440Z,9.746106
2023-08-15T00:18:59.350Z,9.745764
2023-08-15T00:19:59.346Z,9.745716
2023-08-15T00:20:59.334Z,9.745967
2023-08-15T00:21:59.348Z,9.745908
2023-08-15T00:22:59.351Z,9.746041
2023-08-15T00:23:59.312Z,9.745609
2023-08-15T00:24:59.336Z,9.745619
2023-08-15T00:25:59.296Z,9.745705
2023-08-15T00:26:59.338Z,9.745588
2023-08-15T00:27:59.281Z,9.745738
2023-08-15T00:28:59.278Z,9.745209
2023-08-15T00:29:59.269Z,9.745374
2023-08-15T00:30:59.318Z,9.745666
2023-08-15T00:31:59.283Z,9.745858
2023-08-15T00:32:59.265Z,9.745811
2023-08-15T00:33:59.238Z,9.745644
2023-08-15T00:34:59.231Z,9.745649
2023-08-15T00:35:59.240Z,9.745803
2023-08-15T00:36:59.246Z,9.745640
2023-08-15T00:37:59.203Z,9.745683
2023-08-15T00:38:59.196Z,9.745850
2023-08-15T00:39:59.193Z,9.745564
2023-08-15T00:40:59.203Z,9.745430
2023-08-15T00:41:59.193Z,9.745644
2023-08-15T00:42:59.164Z,9.745609
2023-08-15T00:43:59.160Z,9.745820
2023-08-15T00:44:59.143Z,9.745889
2023-08-15T00:45:59.178Z,9.745907
2023-08-15T00:46:59.135Z,9.745638
2023-08-15T00:47:59.228Z,9.745472
2023-08-15T00:48:59.118Z,9.745679
2023-08-15T00:49:59.119Z,9.745659
2023-08-15T00:50:59.127Z,9.745276
2023-08-15T00:51:59.086Z,9.745559
2023-08-15T00:52:59.086Z,9.745691
2023-08-15T00:53:59.075Z,9.745798
2023-08-15T00:54:59.094Z,9.745784
2023-08-15T00:55:59.136Z,9.745840
2023-08-15T00:56:59.063Z,9.745418
2023-08-15T00:57:59.056Z,9.745488
2023-08-15T00:58:59.034Z,9.745500
2023-08-15T00:59:59.093Z,9.745681
2023-08-15T01:00:59.030Z,9.745378
2023-08-15T01:01:59.047Z,9.744994
2023-08-15T01:02:59.047Z,9.745674
2023-08-15T01:03:59.031Z,9.745710
2023-08-15T01:04:59.014Z,9.745526
2023-08-15T01:05:58.988Z,9.745448
2023-08-15T01:06:58.973Z,9.745426
2023-08-15T01:07:58.968Z,9.745520
2023-08-15T01:08:58.979Z,9.745578
2023-08-15T01:09:58.973Z,9.745689
2023-08-15T01:10:58.959Z,9.745608
2023-08-15T01:11:58.937Z,9.745760
2023-08-15T01:12:58.930Z,9.745552
2023-08-15T01:13:58.946Z,9.745367
2023-08-15T01:14:58.938Z,9.745500
2023-08-15T01:15:58.929Z,9.745671
2023-08-15T01:16:58.917Z,9.745684
2023-08-15T01:17:58.938Z,9.745607
2023-08-15T01:18:58.910Z,9.745620
2023-08-15T01:19:58.875Z,9.745749
2023-08-15T01:20:58.867Z,9.745696
2023-08-15T01:21:58.862Z,9.745760
2023-08-15T01:22:58.852Z,9.745935
2023-08-15T01:23:58.868Z,9.745515
2023-08-15T01:24:58.837Z,9.745653
2023-08-15T01:25:58.833Z,9.745601
2023-08-15T01:26:58.818Z,9.745414
2023-08-15T01:27:58.835Z,9.745427
2023-08-15T01:28:58.833Z,9.745501
2023-08-15T01:29:58.797Z,9.745532
2023-08-15T01:30:58.786Z,9.745596
2023-08-15T01:31:58.822Z,9.745540
2023-08-15T01:32:58.845Z,9.745494
2023-08-15T01:33:58.766Z,9.745403
2023-08-15T01:34:58.758Z,9.745486
2023-08-15T01:35:58.752Z,9.745175
2023-08-15T01:36:58.748Z,9.745054
2023-08-15T01:37:58.755Z,9.745319
2023-08-15T01:38:58.726Z,9.745439
2023-08-15T01:39:58.733Z,9.745469
2023-08-15T01:40:58.707Z,9.745638
2023-08-15T01:41:58.752Z,9.745314
2023-08-15T01:42:58.716Z,9.745685
2023-08-15T01:43:58.681Z,9.745868
2023-08-15T01:44:58.673Z,9.746417
2023-08-15T01:45:58.704Z,9.746261
2023-08-15T01:46:58.717Z,9.745811
2023-08-15T01:47:58.667Z,9.745729
2023-08-15T01:48:58.648Z,9.745654
2023-08-15T01:49:58.637Z,9.745605
2023-08-15T01:50:58.627Z,9.745403
2023-08-15T01:51:58.746Z,9.745623
2023-08-15T01:52:58.609Z,9.745490
2023-08-15T01:53:58.601Z,9.745427
2023-08-15T01:54:59.602Z,9.745427
2023-08-15T01:55:58.616Z,9.745427
2023-08-15T01:56:58.606Z,9.745427
2023-08-15T01:57:58.575Z,9.745427
2023-08-15T01:58:58.563Z,9.745427
2023-08-15T01:59:58.559Z,9.745427
2023-08-15T02:00:58.601Z,9.745427
2023-08-15T02:01:58.552Z,9.745427
2023-08-15T02:02:58.583Z,9.745427
2023-08-15T02:03:58.539Z,9.744967
2023-08-15T02:04:58.517Z,9.744958
2023-08-15T02:05:58.635Z,9.745059
2023-08-15T02:06:58.510Z,9.745103
2023-08-15T02:07:58.497Z,9.745158
2023-08-15T02:08:58.486Z,9.745215
2023-08-15T02:09:58.509Z,9.745278
2023-08-15T02:10:58.532Z,9.745376
2023-08-15T02:11:58.468Z,9.745422
2023-08-15T02:12:58.462Z,9.745365
2023-08-15T02:13:58.455Z,9.745759
2023-08-15T02:14:58.473Z,9.745772
2023-08-15T02:15:58.559Z,9.745694
2023-08-15T02:16:58.429Z,9.745592
2023-08-15T02:17:58.447Z,9.745734
2023-08-15T02:18:58.416Z,9.745884
2023-08-15T02:19:58.436Z,9.745725
2023-08-15T02:20:58.403Z,9.745450
2023-08-15T02:21:58.386Z,9.745421
2023-08-15T02:22:58.384Z,9.745217
2023-08-15T02:23:58.400Z,9.745494
2023-08-15T02:24:58.398Z,9.745427
2023-08-15T02:25:58.358Z,9.745631
2023-08-15T02:26:58.357Z,9.745608
2023-08-15T02:27:58.345Z,9.745531
2023-08-15T02:28:58.369Z,9.745495
2023-08-15T02:29:58.331Z,9.745489
2023-08-15T02:30:58.408Z,9.745561
2023-08-15T02:31:58.314Z,9.745487
2023-08-15T02:32:58.376Z,9.745502
2023-08-15T02:33:58.330Z,9.745412
2023-08-15T02:34:58.296Z,9.745574
2023-08-15T02:35:58.281Z,9.745481
2023-08-15T02:36:58.276Z,9.745441
2023-08-15T02:37:58.279Z,9.745356
2023-08-15T02:38:58.284Z,9.745391
2023-08-15T02:39:58.248Z,9.745515
2023-08-15T02:40:58.247Z,9.745534
2023-08-15T02:41:58.232Z,9.745379
2023-08-15T02:42:59.254Z,9.745543
2023-08-15T02:43:58.252Z,9.745727
2023-08-15T02:44:58.206Z,9.745636
2023-08-15T02:45:58.201Z,9.745655
2023-08-15T02:46:58.227Z,9.745498
2023-08-15T02:47:58.220Z,9.745522
2023-08-15T02:48:58.204Z,9.745539
2023-08-15T02:49:58.174Z,9.745469
2023-08-15T02:50:58.162Z,9.745662
2023-08-15T02:51:58.157Z,9.745719
2023-08-15T02:52:58.170Z,9.745829
2023-08-15T02:53:58.146Z,9.745726
2023-08-15T02:54:58.128Z,9.745646
2023-08-15T02:55:58.125Z,9.745660
2023-08-15T02:56:58.139Z,9.745948
2023-08-15T02:57:58.138Z,9.745893
2023-08-15T02:58:58.101Z,9.745725
2023-08-15T02:59:58.089Z,9.745647
2023-08-15T03:00:58.111Z,9.745591
2023-08-15T03:01:58.118Z,9.745519
2023-08-15T03:02:58.138Z,9.745471
2023-08-15T03:03:58.082Z,9.745378
2023-08-15T03:04:58.054Z,9.745378
2023-08-15T03:05:58.045Z,9.745368
2023-08-15T03:06:58.063Z,9.745538
2023-08-15T03:07:58.036Z,9.745524
2023-08-15T03:08:58.022Z,9.745467
2023-08-15T03:09:58.019Z,9.745149
2023-08-15T03:10:58.006Z,9.745278
2023-08-15T03:11:58.027Z,9.745330
2023-08-15T03:12:57.993Z,9.745275
2023-08-15T03:13:57.983Z,9.745240
2023-08-15T03:14:57.987Z,9.745460
2023-08-15T03:15:58.004Z,9.745510
2023-08-15T03:16:57.989Z,9.745312
2023-08-15T03:17:57.970Z,9.745409
2023-08-15T03:18:57.942Z,9.745673
2023-08-15T03:19:57.935Z,9.745456
2023-08-15T03:20:57.965Z,9.745211
2023-08-15T03:21:57.930Z,9.745365
2023-08-15T03:22:57.917Z,9.745353
2023-08-15T03:23:58.928Z,9.745399
2023-08-15T03:24:57.903Z,9.745305
2023-08-15T03:25:57.922Z,9.745572
2023-08-15T03:26:57.885Z,9.745380
2023-08-15T03:27:57.880Z,9.745408
2023-08-15T03:28:57.872Z,9.745341
2023-08-15T03:29:57.896Z,9.745269
2023-08-15T03:30:58.002Z,9.745352
2023-08-15T03:31:57.890Z,9.745502
2023-08-15T03:32:57.866Z,9.745218
2023-08-15T03:33:57.833Z,9.745298
2023-08-15T03:34:57.859Z,9.745427
2023-08-15T03:35:57.823Z,9.745501
2023-08-15T03:36:57.809Z,9.745328
2023-08-15T03:37:57.791Z,9.745225
2023-08-15T03:38:57.794Z,9.745405
2023-08-15T03:39:57.807Z,9.745370
2023-08-15T03:40:57.777Z,9.745290
2023-08-15T03:41:57.775Z,9.745296
2023-08-15T03:42:57.772Z,9.745320
2023-08-15T03:43:57.779Z,9.745304
2023-08-15T03:44:57.769Z,9.745317
2023-08-15T03:45:57.819Z,9.745298
2023-08-15T03:46:57.754Z,9.745241
2023-08-15T03:47:57.767Z,9.745415
2023-08-15T03:48:57.732Z,9.745409
2023-08-15T03:49:57.715Z,9.745289
2023-08-15T03:50:57.699Z,9.745346
2023-08-15T03:51:57.687Z,9.745359
2023-08-15T03:52:57.676Z,9.745167
2023-08-15T03:53:57.698Z,9.745022
2023-08-15T03:54:57.661Z,9.745428
2023-08-15T03:55:57.670Z,9.745192
2023-08-15T03:56:57.640Z,9.745374
2023-08-15T03:57:58.663Z,9.745388
2023-08-15T03:58:57.657Z,9.745107
2023-08-15T03:59:57.632Z,9.745111
2023-08-15T04:00:57.622Z,9.745132
2023-08-15T04:01:59.246Z,9.745031
2023-08-15T04:02:58.726Z,9.745303
2023-08-15T04:03:57.606Z,9.745374
2023-08-15T04:04:57.587Z,9.745827
2023-08-15T04:05:57.593Z,9.744892
2023-08-15T04:06:57.575Z,9.745398
2023-08-15T04:07:57.590Z,9.745727
2023-08-15T04:08:57.557Z,9.745626
2023-08-15T04:09:57.551Z,9.745482
2023-08-15T04:10:57.542Z,9.745684
2023-08-15T04:11:57.531Z,9.745676
2023-08-15T04:12:57.551Z,9.745718
2023-08-15T04:13:57.520Z,9.745574
2023-08-15T04:14:57.510Z,9.745557
2023-08-15T04:15:57.553Z,9.745551
2023-08-15T04:16:57.535Z,9.745490
2023-08-15T04:17:57.595Z,9.745485
2023-08-15T04:18:57.496Z,9.745458
2023-08-15T04:19:57.472Z,9.745688
2023-08-15T04:20:57.462Z,9.745357
2023-08-15T04:21:57.473Z,9.745667
2023-08-15T04:22:57.444Z,9.746074
2023-08-15T04:23:57.433Z,9.745736
2023-08-15T04:24:57.430Z,9.745556
2023-08-15T04:25:57.427Z,9.745687
2023-08-15T04:26:57.432Z,9.745572
2023-08-15T04:27:57.413Z,9.745377
2023-08-15T04:28:57.410Z,9.745431
2023-08-15T04:29:57.385Z,9.745750
2023-08-15T04:30:57.415Z,9.745537
2023-08-15T04:31:57.469Z,9.745418
2023-08-15T04:32:57.380Z,9.745388
2023-08-15T04:33:57.357Z,9.745835
2023-08-15T04:34:57.341Z,9.745518
2023-08-15T04:35:57.368Z,9.745366
2023-08-15T04:36:57.327Z,9.745472
2023-08-15T04:37:57.329Z,9.745680
2023-08-15T04:38:57.313Z,9.745589
2023-08-15T04:39:57.323Z,9.745395
2023-08-15T04:40:59.250Z,9.745456
2023-08-15T04:41:58.295Z,9.745581
2023-08-15T04:42:57.277Z,9.745546
2023-08-15T04:43:57.281Z,9.745447
2023-08-15T04:44:57.266Z,9.745655
2023-08-15T04:45:57.353Z,9.745599
2023-08-15T04:46:57.252Z,9.745499
2023-08-15T04:47:57.336Z,9.745492
2023-08-15T04:48:57.240Z,9.745408
2023-08-15T04:49:57.267Z,9.745352
2023-08-15T04:50:57.289Z,9.745406
2023-08-15T04:51:57.209Z,9.745500
2023-08-15T04:52:57.209Z,9.745487
2023-08-15T04:53:57.198Z,9.745448
2023-08-15T04:54:57.234Z,9.745200
2023-08-15T04:55:57.187Z,9.745400
2023-08-15T04:56:57.180Z,9.745462
2023-08-15T04:57:57.165Z,9.745590
2023-08-15T04:58:57.158Z,9.745681
2023-08-15T04:59:57.172Z,9.745554
2023-08-15T05:00:57.142Z,9.745624
2023-08-15T05:01:57.133Z,9.745610
2023-08-15T05:02:57.181Z,9.745393
2023-08-15T05:03:57.145Z,9.745516
2023-08-15T05:04:57.171Z,9.745608
2023-08-15T05:05:57.111Z,9.745645
2023-08-15T05:06:57.097Z,9.745587
2023-08-15T05:07:57.108Z,9.745667
2023-08-15T05:08:57.111Z,9.745605
2023-08-15T05:09:57.075Z,9.745644
2023-08-15T05:10:57.069Z,9.745501
2023-08-15T05:11:57.068Z,9.745585
2023-08-15T05:12:57.054Z,9.745627
2023-08-15T05:13:57.074Z,9.745646
2023-08-15T05:14:57.046Z,9.745839
2023-08-15T05:15:57.060Z,9.745718
2023-08-15T05:16:57.029Z,9.745690
2023-08-15T05:17:57.057Z,9.745685
2023-08-15T05:18:57.034Z,9.745608
2023-08-15T05:19:56.997Z,9.745598
2023-08-15T05:20:56.990Z,9.745434
2023-08-15T05:21:57.024Z,9.745429
2023-08-15T05:22:57.002Z,9.745544
2023-08-15T05:23:56.973Z,9.745497
2023-08-15T05:24:56.980Z,9.745473
2023-08-15T05:25:56.960Z,9.745419
2023-08-15T05:26:56.955Z,9.745363
2023-08-15T05:27:56.964Z,9.745377
2023-08-15T05:28:56.922Z,9.745535
2023-08-15T05:29:56.922Z,9.745678
2023-08-15T05:30:56.943Z,9.745820
2023-08-15T05:31:56.934Z,9.745350
2023-08-15T05:32:56.949Z,9.745074
2023-08-15T05:33:56.881Z,9.744794
2023-08-15T05:34:56.882Z,9.744337
2023-08-15T05:35:56.872Z,9.744853
2023-08-15T05:36:56.897Z,9.745383
2023-08-15T05:37:56.858Z,9.745125
2023-08-15T05:38:56.844Z,9.745181
2023-08-15T05:39:56.841Z,9.745648
2023-08-15T05:40:56.831Z,9.745825
2023-08-15T05:41:56.850Z,9.745656
2023-08-15T05:42:56.820Z,9.745266
2023-08-15T05:43:56.813Z,9.745191
2023-08-15T05:44:56.801Z,9.745375
2023-08-15T05:45:56.816Z,9.745463
2023-08-15T05:46:56.822Z,9.745431
2023-08-15T05:47:56.825Z,9.745174
2023-08-15T05:48:56.765Z,9.745370
2023-08-15T05:49:56.757Z,9.746337
2023-08-15T05:50:56.781Z,9.746420
2023-08-15T05:51:56.734Z,9.745738
2023-08-15T05:52:57.740Z,9.745635
2023-08-15T05:53:56.733Z,9.745562
2023-08-15T05:54:56.733Z,9.745449
2023-08-15T05:55:56.733Z,9.745617
2023-08-15T05:56:56.707Z,9.745673
2023-08-15T05:57:57.790Z,9.745460
2023-08-15T05:58:57.692Z,9.745500
2023-08-15T05:59:56.682Z,9.745645
2023-08-15T06:00:56.728Z,9.745669
2023-08-15T06:01:56.669Z,9.745635
2023-08-15T06:02:56.713Z,9.745651
2023-08-15T06:03:56.726Z,9.745653
2023-08-15T06:04:56.668Z,9.745675
2023-08-15T06:05:56.664Z,9.745583
2023-08-15T06:06:56.622Z,9.745777
2023-08-15T06:07:56.627Z,9.745619
2023-08-15T06:08:56.634Z,9.745631
2023-08-15T06:09:56.620Z,9.745536
2023-08-15T06:10:56.592Z,9.745569
2023-08-15T06:11:56.587Z,9.745663
2023-08-15T06:12:56.618Z,9.745619
2023-08-15T06:13:56.576Z,9.745605
2023-08-15T06:14:56.591Z,9.745593
2023-08-15T06:15:56.555Z,9.745582
2023-08-15T06:16:56.582Z,9.745526
2023-08-15T06:17:56.570Z,9.745439
2023-08-15T06:18:56.527Z,9.745490
2023-08-15T06:19:56.542Z,9.745564
2023-08-15T06:20:56.508Z,9.745719
2023-08-15T06:21:56.503Z,9.745720
2023-08-15T06:22:56.511Z,9.745633
2023-08-15T06:23:56.552Z,9.745640
2023-08-15T06:24:56.506Z,9.745686
2023-08-15T06:25:56.472Z,9.745526
2023-08-15T06:26:56.466Z,9.745697
2023-08-15T06:27:56.460Z,9.745637
2023-08-15T06:28:56.503Z,9.745540
2023-08-15T06:29:56.439Z,9.745606
2023-08-15T06:30:56.543Z,9.745740
2023-08-15T06:31:56.428Z,9.745692
2023-08-15T06:32:56.451Z,9.745695
2023-08-15T06:33:56.448Z,9.745503
2023-08-15T06:34:56.402Z,9.745749
2023-08-15T06:35:56.413Z,9.745674
2023-08-15T06:36:56.385Z,9.745609
2023-08-15T06:37:56.378Z,9.745725
2023-08-15T06:38:56.404Z,9.745698
2023-08-15T06:39:56.367Z,9.745674
2023-08-15T06:40:56.381Z,9.745718
2023-08-15T06:41:56.399Z,9.745938
2023-08-15T06:42:56.385Z,9.745820
2023-08-15T06:43:56.348Z,9.745520
2023-08-15T06:44:56.351Z,9.745693
2023-08-15T06:45:56.340Z,9.745513
2023-08-15T06:46:56.360Z,9.745524
2023-08-15T06:47:56.363Z,9.745578
2023-08-15T06:48:56.305Z,9.745667
2023-08-15T06:49:56.278Z,9.745850
2023-08-15T06:50:56.379Z,9.745587
2023-08-15T06:51:56.482Z,9.745542
2023-08-15T06:52:56.257Z,9.745422
2023-08-15T06:53:56.243Z,9.745218
2023-08-15T06:54:56.254Z,9.745370
2023-08-15T06:55:57.257Z,9.745028
2023-08-15T06:56:56.225Z,9.745312
2023-08-15T06:57:56.216Z,9.745306
2023-08-15T06:58:56.224Z,9.745176
2023-08-15T06:59:56.222Z,9.745609
2023-08-15T07:00:56.269Z,9.745475
2023-08-15T07:01:56.192Z,9.745447
2023-08-15T07:02:56.291Z,9.745418
2023-08-15T07:03:56.216Z,9.745390
2023-08-15T07:04:56.187Z,9.745398
2023-08-15T07:05:56.157Z,9.745511
2023-08-15T07:06:56.146Z,9.745504
2023-08-15T07:07:56.133Z,9.745650
2023-08-15T07:08:56.133Z,9.745757
2023-08-15T07:09:56.146Z,9.745811
2023-08-15T07:10:56.110Z,9.745484
2023-08-15T07:11:56.116Z,9.745512
2023-08-15T07:12:56.096Z,9.745469
2023-08-15T07:13:56.099Z,9.745244
2023-08-15T07:14:56.117Z,9.745318
2023-08-15T07:15:56.097Z,9.745501
2023-08-15T07:16:56.100Z,9.745785
2023-08-15T07:17:56.115Z,9.745832
2023-08-15T07:18:56.082Z,9.745656
2023-08-15T07:19:56.075Z,9.745321
2023-08-15T07:20:56.045Z,9.745472
2023-08-15T07:21:56.038Z,9.745463
2023-08-15T07:22:56.059Z,9.745466
2023-08-15T07:23:56.048Z,9.745473
2023-08-15T07:24:56.013Z,9.745651
2023-08-15T07:25:56.004Z,9.745734
2023-08-15T07:26:55.999Z,9.745552
2023-08-15T07:27:55.991Z,9.745625
2023-08-15T07:28:56.010Z,9.745712
2023-08-15T07:29:56.002Z,9.745670
2023-08-15T07:30:55.974Z,9.745592
2023-08-15T07:31:55.989Z,9.745732
2023-08-15T07:32:56.004Z,9.745749
2023-08-15T07:33:56.029Z,9.745867
2023-08-15T07:34:55.945Z,9.745941
2023-08-15T07:35:55.945Z,9.745974
2023-08-15T07:36:55.934Z,9.745870
2023-08-15T07:37:55.973Z,9.745485
2023-08-15T07:38:55.924Z,9.745417
2023-08-15T07:39:55.929Z,9.745614
2023-08-15T07:40:55.903Z,9.745691
2023-08-15T07:41:56.899Z,9.745673
2023-08-15T07:42:55.931Z,9.745667
2023-08-15T07:43:55.890Z,9.745660
2023-08-15T07:44:55.888Z,9.745715
2023-08-15T07:45:55.961Z,9.745955
2023-08-15T07:46:55.896Z,9.746100
2023-08-15T07:47:55.922Z,9.745998
2023-08-15T07:48:57.155Z,9.745659
2023-08-15T07:49:55.850Z,9.745646
2023-08-15T07:50:55.883Z,9.745569
2023-08-15T07:51:55.883Z,9.745805
2023-08-15T07:52:55.834Z,9.745751
2023-08-15T07:53:55.834Z,9.745601
2023-08-15T07:54:55.829Z,9.745540
2023-08-15T07:55:55.829Z,9.745606
2023-08-15T07:56:55.835Z,9.746003
2023-08-15T07:57:55.814Z,9.745996
2023-08-15T07:58:55.973Z,9.745709
2023-08-15T07:59:55.802Z,9.745460
2023-08-15T08:00:55.826Z,9.745543
2023-08-15T08:01:55.825Z,9.745667
2023-08-15T08:02:55.802Z,9.745499
2023-08-15T08:03:55.777Z,9.745633
2023-08-15T08:04:55.803Z,9.745692
2023-08-15T08:05:55.816Z,9.745863
2023-08-15T08:06:55.769Z,9.745917
2023-08-15T08:07:55.756Z,9.745640
2023-08-15T08:08:55.762Z,9.745741
2023-08-15T08:09:55.739Z,9.745900
2023-08-15T08:10:55.768Z,9.745678
2023-08-15T08:11:55.748Z,9.745552
2023-08-15T08:12:55.746Z,9.745537
2023-08-15T08:13:55.725Z,9.745442
2023-08-15T08:14:57.961Z,9.745229
2023-08-15T08:15:56.776Z,9.745582
2023-08-15T08:16:55.693Z,9.745420
2023-08-15T08:17:55.839Z,9.745407
2023-08-15T08:18:55.688Z,9.745787
2023-08-15T08:19:55.707Z,9.745712
2023-08-15T08:20:55.710Z,9.745733
2023-08-15T08:21:55.679Z,9.745723
2023-08-15T08:22:55.693Z,9.745644
2023-08-15T08:23:55.671Z,9.745608
2023-08-15T08:24:55.679Z,9.745313
2023-08-15T08:25:55.668Z,9.745530
2023-08-15T08:26:55.650Z,9.745648
2023-08-15T08:27:55.660Z,9.745613
2023-08-15T08:28:55.641Z,9.745218
2023-08-15T08:29:55.662Z,9.745431
2023-08-15T08:30:55.638Z,9.745557
2023-08-15T08:31:55.686Z,9.745634
2023-08-15T08:32:55.657Z,9.745529
2023-08-15T08:33:55.622Z,9.745632
2023-08-15T08:34:55.637Z,9.745645
2023-08-15T08:35:55.609Z,9.745467
2023-08-15T08:36:55.602Z,9.745493
2023-08-15T08:37:55.685Z,9.745411
2023-08-15T08:38:55.615Z,9.745542
2023-08-15T08:39:55.606Z,9.745632
2023-08-15T08:40:55.580Z,9.745791
2023-08-15T08:41:55.579Z,9.745489
2023-08-15T08:42:55.573Z,9.745554
2023-08-15T08:43:55.592Z,9.745683
2023-08-15T08:44:55.557Z,9.745610
2023-08-15T08:45:55.677Z,9.745561
2023-08-15T08:46:55.544Z,9.745601
2023-08-15T08:47:55.705Z,9.745625
2023-08-15T08:48:55.577Z,9.745597
2023-08-15T08:49:55.543Z,9.745683
2023-08-15T08:50:55.523Z,9.745588
2023-08-15T08:51:55.530Z,9.745491
2023-08-15T08:52:55.566Z,9.745337
2023-08-15T08:53:55.539Z,9.745550
2023-08-15T08:54:57.583Z,9.745710
2023-08-15T08:55:56.511Z,9.745659
2023-08-15T08:56:55.512Z,9.745560
2023-08-15T08:57:55.516Z,9.745605
2023-08-15T08:58:56.527Z,9.745657
2023-08-15T08:59:55.488Z,9.745591
2023-08-15T09:00:55.482Z,9.745464
2023-08-15T09:01:55.465Z,9.745626
2023-08-15T09:02:55.602Z,9.745540
2023-08-15T09:03:55.456Z,9.745564
2023-08-15T09:04:55.453Z,9.745594
2023-08-15T09:05:55.460Z,9.745648
2023-08-15T09:06:55.480Z,9.745627
2023-08-15T09:07:55.459Z,9.745607
2023-08-15T09:08:55.452Z,9.745621
2023-08-15T09:09:55.424Z,9.745421
2023-08-15T09:10:55.419Z,9.745556
2023-08-15T09:11:55.434Z,9.745421
2023-08-15T09:12:55.413Z,9.745487
2023-08-15T09:13:55.411Z,9.745543
2023-08-15T09:14:55.442Z,9.745523
2023-08-15T09:15:55.424Z,9.745214
2023-08-15T09:16:55.405Z,9.745347
2023-08-15T09:17:55.385Z,9.745394
2023-08-15T09:18:55.364Z,9.745352
2023-08-15T09:19:55.363Z,9.745402
2023-08-15T09:20:55.377Z,9.745454
2023-08-15T09:21:55.370Z,9.745580
2023-08-15T09:22:55.343Z,9.745444
2023-08-15T09:23:55.339Z,9.745595
2023-08-15T09:24:55.332Z,9.745564
2023-08-15T09:25:55.347Z,9.745477
2023-08-15T09:26:55.317Z,9.745543
2023-08-15T09:27:55.329Z,9.745620
2023-08-15T09:28:55.311Z,9.745548
2023-08-15T09:29:55.311Z,9.745487
2023-08-15T09:30:55.340Z,9.745522
2023-08-15T09:31:55.295Z,9.745321
2023-08-15T09:32:55.349Z,9.745234
2023-08-15T09:33:55.275Z,9.745414
2023-08-15T09:34:55.294Z,9.745393
2023-08-15T09:35:59.029Z,9.745584
2023-08-15T09:36:56.263Z,9.745555
2023-08-15T09:37:55.250Z,9.745232
2023-08-15T09:38:55.246Z,9.744863
2023-08-15T09:39:55.291Z,9.745267
2023-08-15T09:40:55.247Z,9.745118
2023-08-15T09:41:55.228Z,9.745324
2023-08-15T09:42:55.399Z,9.745659
2023-08-15T09:43:55.219Z,9.745668
2023-08-15T09:44:55.243Z,9.745639
2023-08-15T09:45:55.205Z,9.745420
2023-08-15T09:46:55.231Z,9.745310
2023-08-15T09:47:55.226Z,9.745268
2023-08-15T09:48:55.187Z,9.745330
2023-08-15T09:49:55.206Z,9.745180
2023-08-15T09:50:55.194Z,9.745543
2023-08-15T09:51:55.169Z,9.745142
2023-08-15T09:52:55.162Z,9.745036
2023-08-15T09:53:55.157Z,9.745339
2023-08-15T09:54:55.177Z,9.745048
2023-08-15T09:55:55.157Z,9.745588
2023-08-15T09:56:55.144Z,9.745729
2023-08-15T09:57:55.135Z,9.745525
2023-08-15T09:58:55.122Z,9.745737
2023-08-15T09:59:55.141Z,9.745497
2023-08-15T10:00:55.185Z,9.745637
2023-08-15T10:01:55.113Z,9.745203
2023-08-15T10:02:55.142Z,9.745844
2023-08-15T10:03:55.181Z,9.745962
2023-08-15T10:04:55.109Z,9.746027
2023-08-15T10:05:55.135Z,9.746213
2023-08-15T10:06:55.078Z,9.745792
2023-08-15T10:07:55.076Z,9.745615
2023-08-15T10:08:55.087Z,9.745705
2023-08-15T10:09:55.050Z,9.745384
2023-08-15T10:10:55.079Z,9.745568
2023-08-15T10:11:55.036Z,9.745513
2023-08-15T10:12:55.040Z,9.745476
2023-08-15T10:13:55.053Z,9.745312
2023-08-15T10:14:55.039Z,9.745100
2023-08-15T10:15:55.043Z,9.745398
2023-08-15T10:16:55.079Z,9.745511
2023-08-15T10:17:55.054Z,9.745403
2023-08-15T10:18:55.017Z,9.745568
2023-08-15T10:19:54.969Z,9.745406
2023-08-15T10:20:55.978Z,9.745365
2023-08-15T10:21:54.973Z,9.745437
2023-08-15T10:22:54.984Z,9.745743
2023-08-15T10:23:54.970Z,9.745621
2023-08-15T10:24:54.947Z,9.745791
2023-08-15T10:25:54.947Z,9.745544
2023-08-15T10:26:54.942Z,9.745650
2023-08-15T10:27:54.957Z,9.745599
2023-08-15T10:28:54.916Z,9.745667
2023-08-15T10:29:54.925Z,9.745699
2023-08-15T10:30:55.046Z,9.745840
2023-08-15T10:31:54.931Z,9.745662
2023-08-15T10:32:54.943Z,9.745470
2023-08-15T10:33:54.895Z,9.745478
2023-08-15T10:34:54.877Z,9.745443
2023-08-15T10:35:54.872Z,9.745559
2023-08-15T10:36:54.895Z,9.745369
2023-08-15T10:37:54.852Z,9.745477
2023-08-15T10:38:54.849Z,9.745496
2023-08-15T10:39:54.836Z,9.745326
2023-08-15T10:40:54.833Z,9.745755
2023-08-15T10:41:54.855Z,9.745411
2023-08-15T10:42:54.813Z,9.744997
2023-08-15T10:43:54.828Z,9.744826
2023-08-15T10:44:54.807Z,9.745264
2023-08-15T10:45:54.862Z,9.745682
2023-08-15T10:46:54.820Z,9.745848
2023-08-15T10:47:54.832Z,9.745730
2023-08-15T10:49:55.783Z,9.745835
2023-08-15T10:50:54.785Z,9.745883
2023-08-15T10:51:54.752Z,9.745664
2023-08-15T10:52:55.707Z,9.745696
2023-08-15T10:53:54.748Z,9.745512
2023-08-15T10:54:54.732Z,9.745357
2023-08-15T10:55:54.754Z,9.745287
2023-08-15T10:56:54.734Z,9.745493
2023-08-15T10:57:54.710Z,9.745724
2023-08-15T10:58:54.704Z,9.745525
2023-08-15T10:59:54.720Z,9.745530
2023-08-15T11:00:54.707Z,9.745582
2023-08-15T11:01:54.735Z,9.745558
2023-08-15T11:02:54.720Z,9.745511
2023-08-15T11:03:54.731Z,9.745507
2023-08-15T11:04:54.696Z,9.745623
2023-08-15T11:05:54.652Z,9.745733
2023-08-15T11:06:54.652Z,9.745760
2023-08-15T11:07:54.637Z,9.745563
2023-08-15T11:08:54.660Z,9.745517
2023-08-15T11:09:54.652Z,9.745553
2023-08-15T11:10:54.615Z,9.745544
2023-08-15T11:11:54.608Z,9.745525
2023-08-15T11:12:54.599Z,9.745370
2023-08-15T11:13:54.615Z,9.745442
2023-08-15T11:14:54.607Z,9.745548
2023-08-15T11:15:54.589Z,9.745535
2023-08-15T11:16:54.572Z,9.745599
2023-08-15T11:17:54.661Z,9.745835
2023-08-15T11:18:54.571Z,9.745461
2023-08-15T11:19:54.541Z,9.745591
2023-08-15T11:20:54.533Z,9.745480
2023-08-15T11:21:54.527Z,9.745030
2023-08-15T11:22:54.521Z,9.745360
2023-08-15T11:23:54.537Z,9.745413
2023-08-15T11:24:54.521Z,9.745448
2023-08-15T11:25:54.502Z,9.745345
2023-08-15T11:26:54.500Z,9.745363
2023-08-15T11:27:54.510Z,9.744961
2023-08-15T11:28:54.513Z,9.744944
2023-08-15T11:29:54.472Z,9.744925
2023-08-15T11:30:54.542Z,9.745033
2023-08-15T11:31:54.507Z,9.745015
2023-08-15T11:32:54.529Z,9.745232
2023-08-15T11:33:54.445Z,9.745642
2023-08-15T11:34:55.290Z,9.745257
2023-08-15T11:35:54.427Z,9.745456
2023-08-15T11:36:54.424Z,9.745274
2023-08-15T11:37:54.442Z,9.745300
2023-08-15T11:38:54.421Z,9.745111
2023-08-15T11:39:54.424Z,9.745250
2023-08-15T11:40:54.401Z,9.745273
2023-08-15T11:41:54.393Z,9.745289
2023-08-15T11:42:54.410Z,9.745364
2023-08-15T11:43:54.380Z,9.745588
2023-08-15T11:44:54.412Z,9.745502